Time;durP1;ratioP1;P1;durP2;ratioP2;P2;SDS_P1;SDS_P2;PMS_P1;PMS_P2;Temp;Humidity;BMP_temperature;BMP_pressure;BME280_temperature;BME280_humidity;BME280_pressure;Samples;Min_cycle;Max_cycle;Signal;HPM_P1;HPM_P2
2020/12/01 00:00:21;;;;;;;;;;;;;;;;;;2087328;28;7042;-61
2020/12/01 00:01:23;;;;;;;;;;;;;;;;;;2088035;28;8031;-63
2020/12/01 00:02:26;;;;;;;;;;;;;;;;;;2087886;28;7084;-61
2020/12/01 00:03:27;;;;;;;;;;;;;;;;;;2087973;28;7017;-60
2020/12/01 00:04:29;;;;;;;;;;;;;;;;;;2087537;28;8011;-61
2020/12/01 00:05:32;;;;;;;;;;;;;;;;;;2087774;28;7009;-61
2020/12/01 00:06:34;;;;;;;;;;;;;;;;;;2087701;28;7092;-59
2020/12/01 00:07:38;;;;;;;;;;;;;;;;;;2085909;28;7092;-56
2020/12/01 00:08:41;;;;;;;;;;;;;;;;;;2086737;28;7005;-61
2020/12/01 00:09:44;;;;;;;;;;;;;;;;;;2087767;28;8038;-62
2020/12/01 00:10:46;;;;;;;;;;;;;;;;;;2087749;28;8106;-59
2020/12/01 00:11:48;;;;;;;;;;;;;;;;;;2087848;28;7092;-61
2020/12/01 00:12:50;;;;;;;;;;;;;;;;;;2088186;28;7154;-63
2020/12/01 00:13:52;;;;;;;;;;;;;;;;;;2086775;28;7097;-58
2020/12/01 00:14:54;;;;;;;;;;;;;;;;;;2087192;28;7009;-61
2020/12/01 00:15:56;;;;;;;;;;;;;;;;;;2087682;28;7009;-60
2020/12/01 00:16:58;;;;;;;;;;;;;;;;;;2087527;28;7088;-59
2020/12/01 00:18:00;;;;;;;;;;;;;;;;;;2088527;28;7088;-59
2020/12/01 00:19:02;;;;;;;;;;;;;;;;;;2087753;28;7009;-60
2020/12/01 00:20:06;;;;;;;;;;;;;;;;;;2087848;28;8135;-61
2020/12/01 00:21:16;;;;;;;;;;;;;;;;;;2087585;28;7045;-61
2020/12/01 00:22:18;;;;;;;;;;;;;;;;;;2086652;28;7013;-62
2020/12/01 00:23:20;;;;;;;;;;;;;;;;;;2087563;28;7322;-59
2020/12/01 00:24:22;;;;;;;;;;;;;;;;;;2087525;28;7009;-57
2020/12/01 00:25:24;;;;;;;;;;;;;;;;;;2087781;28;7096;-62
2020/12/01 00:26:26;;;;;;;;;;;;;;;;;;2087745;28;7013;-61
2020/12/01 00:27:28;;;;;;;;;;;;;;;;;;2087602;28;7088;-61
2020/12/01 00:28:30;;;;;;;;;;;;;;;;;;2087659;28;7137;-62
2020/12/01 00:29:32;;;;;;;;;;;;;;;;;;2087888;28;7093;-59
2020/12/01 00:30:34;;;;;;;;;;;;;;;;;;2086788;28;7009;-59
2020/12/01 00:31:40;;;;;;;;;;;;;;;;;;2086557;28;7038;-62
2020/12/01 00:32:43;;;;;;;;;;;;;;;;;;2087323;28;7113;-59
2020/12/01 00:33:48;;;;;;;;;;;;;;;;;;2087488;28;7109;-59
2020/12/01 00:34:50;;;;;;;;;;;;;;;;;;2087651;28;7009;-59
2020/12/01 00:35:52;;;;;;;;;;;;;;;;;;2087987;28;7100;-59
2020/12/01 00:36:54;;;;;;;;;;;;;;;;;;2087234;28;7009;-61
2020/12/01 00:37:56;;;;;;;;;;;;;;;;;;2087811;28;7014;-57
2020/12/01 00:38:58;;;;;;;;;;;;;;;;;;2088228;28;7096;-61
2020/12/01 00:40:07;;;;;;;;;;;;;;;;;;2087384;28;7013;-59
2020/12/01 00:41:09;;;;;;;;;;;;;;;;;;2087268;28;7191;-60
2020/12/01 00:42:11;;;;;;;;;;;;;;;;;;2087846;28;7096;-62
2020/12/01 00:43:14;;;;;;;;;;;;;;;;;;2087812;28;7092;-61
2020/12/01 00:44:16;;;;;;;;;;;;;;;;;;2086056;28;7053;-61
2020/12/01 00:45:19;;;;;;;;;;;;;;;;;;2087709;28;7025;-61
2020/12/01 00:46:21;;;;;;;;;;;;;;;;;;2087006;28;7203;-57
2020/12/01 00:47:23;;;;;;;;;;;;;;;;;;2087128;28;7092;-59
2020/12/01 00:48:25;;;;;;;;;;;;;;;;;;2086167;28;7033;-57
2020/12/01 00:49:27;;;;;;;;;;;;;;;;;;2087498;28;7100;-62
2020/12/01 00:50:29;;;;;;;;;;;;;;;;;;2087678;28;7038;-61
2020/12/01 00:51:31;;;;;;;;;;;;;;;;;;2087159;28;7100;-60
2020/12/01 00:52:33;;;;;;;;;;;;;;;;;;2087485;28;7036;-59
2020/12/01 00:53:36;;;;;;;;;;;;;;;;;;2087313;28;7339;-62
2020/12/01 00:54:38;;;;;;;;;;;;;;;;;;2087002;28;8026;-56
2020/12/01 00:55:40;;;;;;;;;;;;;;;;;;2087102;28;7013;-61
2020/12/01 00:56:42;;;;;;;;;;;;;;;;;;2086979;28;7065;-61
2020/12/01 00:57:49;;;;;;;;;;;;;;;;;;2087206;28;7117;-59
2020/12/01 00:58:51;;;;;;;;;;;;;;;;;;2080679;28;7109;-57
2020/12/01 00:59:55;;;;;;;;;;;;;;;;;;2087223;28;7009;-59
2020/12/01 01:00:58;;;;;;;;;;;;;;;;;;2087150;28;7025;-60
2020/12/01 01:02:00;;;;;;;;;;;;;;;;;;2087357;28;7009;-59
2020/12/01 01:03:02;;;;;;;;;;;;;;;;;;2087243;28;7051;-60
2020/12/01 01:04:04;;;;;;;;;;;;;;;;;;2087153;28;7023;-59
2020/12/01 01:05:06;;;;;;;;;;;;;;;;;;2086725;28;7088;-57
2020/12/01 01:06:11;;;;;;;;;;;;;;;;;;2087033;28;7009;-59
2020/12/01 01:07:13;;;;;;;;;;;;;;;;;;2086348;28;7013;-61
2020/12/01 01:08:15;;;;;;;;;;;;;;;;;;2084869;28;7615;-61
2020/12/01 01:09:24;;;;;;;;;;;;;;;;;;2086737;28;7291;-61
2020/12/01 01:10:28;;;;;;;;;;;;;;;;;;2087915;28;7009;-61
2020/12/01 01:11:31;;;;;;;;;;;;;;;;;;2086941;28;7089;-61
2020/12/01 01:12:34;;;;;;;;;;;;;;;;;;2086951;28;7088;-60
2020/12/01 01:13:37;;;;;;;;;;;;;;;;;;2086780;28;7108;-58
2020/12/01 01:14:39;;;;;;;;;;;;;;;;;;2086729;28;7088;-62
2020/12/01 01:15:41;;;;;;;;;;;;;;;;;;2087373;28;7097;-62
2020/12/01 01:16:44;;;;;;;;;;;;;;;;;;2087231;28;7092;-60
2020/12/01 01:17:46;;;;;;;;;;;;;;;;;;2086843;28;7113;-62
2020/12/01 01:18:48;;;;;;;;;;;;;;;;;;2087126;28;8034;-60
2020/12/01 01:19:50;;;;;;;;;;;;;;;;;;2086719;28;7092;-57
2020/12/01 01:20:57;;;;;;;;;;;;;;;;;;2087054;28;7088;-61
2020/12/01 01:21:59;;;;;;;;;;;;;;;;;;2086455;28;7093;-60
2020/12/01 01:23:01;;;;;;;;;;;;;;;;;;2086958;28;7013;-60
2020/12/01 01:24:03;;;;;;;;;;;;;;;;;;2094238;28;7641;-59
2020/12/01 01:25:18;;;;;;;;;;;;;;;;;;2094477;28;7033;-60
2020/12/01 01:26:20;;;;;;;;;;;;;;;;;;2086484;28;9048;-61
2020/12/01 01:27:22;;;;;;;;;;;;;;;;;;2086763;28;7009;-61
2020/12/01 01:28:24;;;;;;;;;;;;;;;;;;2087269;28;7005;-60
2020/12/01 01:29:26;;;;;;;;;;;;;;;;;;2087226;28;7809;-60
2020/12/01 01:30:28;;;;;;;;;;;;;;;;;;2085352;28;7135;-59
2020/12/01 01:31:31;;;;;;;;;;;;;;;;;;2086975;28;7042;-59
2020/12/01 01:32:33;;;;;;;;;;;;;;;;;;2086691;28;7139;-58
2020/12/01 01:33:35;;;;;;;;;;;;;;;;;;2086953;28;7033;-63
2020/12/01 01:34:37;;;;;;;;;;;;;;;;;;2087014;28;7093;-59
2020/12/01 01:35:39;;;;;;;;;;;;;;;;;;2087073;28;7089;-61
2020/12/01 01:36:42;;;;;;;;;;;;;;;;;;2087219;28;7092;-61
2020/12/01 01:37:51;;;;;;;;;;;;;;;;;;2087126;28;7049;-60
2020/12/01 01:38:53;;;;;;;;;;;;;;;;;;2086804;28;7009;-58
2020/12/01 01:39:55;;;;;;;;;;;;;;;;;;2086800;28;7155;-63
2020/12/01 01:40:57;;;;;;;;;;;;;;;;;;2083803;28;8071;-58
2020/12/01 01:41:59;;;;;;;;;;;;;;;;;;2087166;28;7088;-61
2020/12/01 01:43:02;;;;;;;;;;;;;;;;;;2087079;28;8046;-59
2020/12/01 01:44:22;;;;;;;;;;;;;;;;;;2087471;28;7131;-61
2020/12/01 01:45:33;;;;;;;;;;;;;;;;;;2086982;28;7057;-61
2020/12/01 01:46:51;;;;;;;;;;;;;;;;;;2086993;28;7150;-57
2020/12/01 01:47:53;;;;;;;;;;;;;;;;;;2087065;28;7030;-61
2020/12/01 01:48:58;;;;;;;;;;;;;;;;;;2086506;28;7049;-59
2020/12/01 01:50:03;;;;;;;;;;;;;;;;;;2086980;28;7151;-60
2020/12/01 01:51:10;;;;;;;;;;;;;;;;;;2087000;28;7141;-62
2020/12/01 01:52:19;;;;;;;;;;;;;;;;;;2086447;28;7386;-60
2020/12/01 01:53:21;;;;;;;;;;;;;;;;;;2085422;28;7013;-58
2020/12/01 01:54:26;;;;;;;;;;;;;;;;;;2087144;28;7104;-61
2020/12/01 01:55:28;;;;;;;;;;;;;;;;;;2087045;28;7010;-61
2020/12/01 01:56:34;;;;;;;;;;;;;;;;;;2087085;28;7104;-57
2020/12/01 01:57:37;;;;;;;;;;;;;;;;;;2086588;28;7120;-58
2020/12/01 01:58:42;;;;;;;;;;;;;;;;;;2086695;28;7013;-59
2020/12/01 01:59:47;;;;;;;;;;;;;;;;;;2086841;28;7032;-59
2020/12/01 02:01:00;;;;;;;;;;;;;;;;;;2086810;28;7096;-57
2020/12/01 02:02:11;;;;;;;;;;;;;;;;;;2086764;28;8044;-59
2020/12/01 02:03:23;;;;;;;;;;;;;;;;;;2086556;28;7088;-61
2020/12/01 02:04:28;;;;;;;;;;;;;;;;;;2086851;28;7109;-61
2020/12/01 02:05:30;;;;;;;;;;;;;;;;;;2086264;28;7050;-61
2020/12/01 02:06:36;;;;;;;;;;;;;;;;;;2085092;28;7046;-58
2020/12/01 02:07:38;;;;;;;;;;;;;;;;;;2093766;28;7088;-61
2020/12/01 02:08:43;;;;;;;;;;;;;;;;;;2093989;28;7084;-60
2020/12/01 02:09:54;;;;;;;;;;;;;;;;;;2086932;28;7113;-59
2020/12/01 02:10:56;;;;;;;;;;;;;;;;;;2086946;28;7088;-58
2020/12/01 02:12:01;;;;;;;;;;;;;;;;;;2086973;28;7009;-60
2020/12/01 02:13:06;;;;;;;;;;;;;;;;;;2087032;28;7148;-60
2020/12/01 02:14:25;;;;;;;;;;;;;;;;;;2087168;28;7012;-59
2020/12/01 02:15:28;;;;;;;;;;;;;;;;;;2086768;28;7216;-59
2020/12/01 02:16:31;;;;;;;;;;;;;;;;;;2087021;28;7116;-59
2020/12/01 02:17:34;;;;;;;;;;;;;;;;;;2087155;28;7312;-60
2020/12/01 02:18:42;;;;;;;;;;;;;;;;;;2087379;28;7172;-60
2020/12/01 02:19:45;;;;;;;;;;;;;;;;;;2087157;28;7152;-61
2020/12/01 02:20:47;;;;;;;;;;;;;;;;;;2086964;28;7010;-62
2020/12/01 02:21:49;;;;;;;;;;;;;;;;;;2094123;28;7092;-61
2020/12/01 02:22:58;;;;;;;;;;;;;;;;;;2094165;28;7049;-58
2020/12/01 02:24:05;;;;;;;;;;;;;;;;;;2085860;28;8081;-61
2020/12/01 02:25:07;;;;;;;;;;;;;;;;;;2085639;28;7112;-59
2020/12/01 02:26:09;;;;;;;;;;;;;;;;;;2086363;28;7014;-61
2020/12/01 02:27:14;;;;;;;;;;;;;;;;;;2087527;28;7006;-61
2020/12/01 02:28:18;;;;;;;;;;;;;;;;;;2087232;28;7029;-58
2020/12/01 02:29:24;;;;;;;;;;;;;;;;;;2088209;28;7041;-64
2020/12/01 02:30:26;;;;;;;;;;;;;;;;;;2088293;28;7112;-61
2020/12/01 02:31:28;;;;;;;;;;;;;;;;;;2086728;28;7029;-59
2020/12/01 02:32:30;;;;;;;;;;;;;;;;;;2088132;28;7268;-57
2020/12/01 02:33:32;;;;;;;;;;;;;;;;;;2088342;28;7382;-59
2020/12/01 02:34:41;;;;;;;;;;;;;;;;;;2088154;28;7193;-60
2020/12/01 02:35:43;;;;;;;;;;;;;;;;;;2087579;28;7032;-60
2020/12/01 02:36:45;;;;;;;;;;;;;;;;;;2088136;28;7680;-58
2020/12/01 02:37:48;;;;;;;;;;;;;;;;;;2088468;28;7005;-58
2020/12/01 02:38:49;;;;;;;;;;;;;;;;;;2087975;28;7013;-58
2020/12/01 02:39:51;;;;;;;;;;;;;;;;;;2088665;28;8025;-62
2020/12/01 02:40:53;;;;;;;;;;;;;;;;;;2088610;28;7061;-59
2020/12/01 02:41:58;;;;;;;;;;;;;;;;;;2088089;28;7045;-60
2020/12/01 02:43:08;;;;;;;;;;;;;;;;;;2086687;28;7994;-60
2020/12/01 02:44:10;;;;;;;;;;;;;;;;;;2088283;28;7105;-58
2020/12/01 02:45:12;;;;;;;;;;;;;;;;;;2088296;28;7046;-57
2020/12/01 02:46:16;;;;;;;;;;;;;;;;;;2087545;28;7042;-60
2020/12/01 02:47:19;;;;;;;;;;;;;;;;;;2087613;28;7005;-57
2020/12/01 02:48:20;;;;;;;;;;;;;;;;;;2088458;28;7116;-58
2020/12/01 02:49:22;;;;;;;;;;;;;;;;;;2087755;28;7009;-59
2020/12/01 02:50:24;;;;;;;;;;;;;;;;;;2087141;28;8026;-61
2020/12/01 02:51:39;;;;;;;;;;;;;;;;;;2087895;28;8042;-59
2020/12/01 02:52:41;;;;;;;;;;;;;;;;;;2088111;28;7046;-61
2020/12/01 02:53:43;;;;;;;;;;;;;;;;;;2095497;28;7092;-60
2020/12/01 02:54:46;;;;;;;;;;;;;;;;;;2095393;28;7050;-58
2020/12/01 02:55:48;;;;;;;;;;;;;;;;;;2087882;28;7005;-60
2020/12/01 02:56:52;;;;;;;;;;;;;;;;;;2088263;28;7009;-62
2020/12/01 02:57:54;;;;;;;;;;;;;;;;;;2087982;28;8540;-60
2020/12/01 02:59:03;;;;;;;;;;;;;;;;;;2087943;28;7088;-61
2020/12/01 03:00:15;;;;;;;;;;;;;;;;;;2088237;28;7024;-60
2020/12/01 03:01:17;;;;;;;;;;;;;;;;;;2088752;28;7013;-59
2020/12/01 03:02:25;;;;;;;;;;;;;;;;;;2087929;28;7021;-61
2020/12/01 03:03:30;;;;;;;;;;;;;;;;;;2088079;28;7017;-61
2020/12/01 03:04:32;;;;;;;;;;;;;;;;;;2088070;28;7092;-61
2020/12/01 03:05:34;;;;;;;;;;;;;;;;;;2088294;28;7088;-61
2020/12/01 03:06:36;;;;;;;;;;;;;;;;;;2088285;28;8078;-58
2020/12/01 03:07:38;;;;;;;;;;;;;;;;;;2087696;28;7129;-61
2020/12/01 03:08:40;;;;;;;;;;;;;;;;;;2088027;28;7124;-61
2020/12/01 03:09:43;;;;;;;;;;;;;;;;;;2087937;28;7391;-58
2020/12/01 03:10:45;;;;;;;;;;;;;;;;;;2088263;28;7092;-63
2020/12/01 03:11:48;;;;;;;;;;;;;;;;;;2086991;28;7084;-60
2020/12/01 03:12:50;;;;;;;;;;;;;;;;;;2088435;28;7009;-61
2020/12/01 03:13:52;;;;;;;;;;;;;;;;;;2088180;28;7196;-59
2020/12/01 03:14:54;;;;;;;;;;;;;;;;;;2087872;28;7328;-60
2020/12/01 03:16:01;;;;;;;;;;;;;;;;;;2087657;28;7049;-58
2020/12/01 03:17:03;;;;;;;;;;;;;;;;;;2087898;28;7017;-61
2020/12/01 03:18:11;;;;;;;;;;;;;;;;;;2088182;28;7193;-62
2020/12/01 03:19:14;;;;;;;;;;;;;;;;;;2087902;28;7050;-58
2020/12/01 03:20:16;;;;;;;;;;;;;;;;;;2087744;28;7144;-57
2020/12/01 03:21:18;;;;;;;;;;;;;;;;;;2087759;28;7145;-61
2020/12/01 03:22:20;;;;;;;;;;;;;;;;;;2087617;28;7029;-59
2020/12/01 03:23:22;;;;;;;;;;;;;;;;;;2088373;28;7017;-61
2020/12/01 03:24:24;;;;;;;;;;;;;;;;;;2088205;28;7013;-59
2020/12/01 03:25:26;;;;;;;;;;;;;;;;;;2088284;28;7112;-59
2020/12/01 03:26:29;;;;;;;;;;;;;;;;;;2088016;28;7017;-60
2020/12/01 03:27:30;;;;;;;;;;;;;;;;;;2088208;28;7300;-58
2020/12/01 03:28:32;;;;;;;;;;;;;;;;;;2087749;28;9227;-60
2020/12/01 03:29:34;;;;;;;;;;;;;;;;;;2087850;28;7556;-61
2020/12/01 03:30:36;;;;;;;;;;;;;;;;;;2088013;28;7311;-59
2020/12/01 03:31:39;;;;;;;;;;;;;;;;;;2086899;28;7105;-59
2020/12/01 03:32:45;;;;;;;;;;;;;;;;;;2087619;28;7013;-59
2020/12/01 03:33:47;;;;;;;;;;;;;;;;;;2088060;28;7013;-62
2020/12/01 03:34:51;;;;;;;;;;;;;;;;;;2087635;28;7013;-61
2020/12/01 03:35:53;;;;;;;;;;;;;;;;;;2087664;28;7013;-59
2020/12/01 03:36:55;;;;;;;;;;;;;;;;;;2087684;28;7029;-58
2020/12/01 03:37:59;;;;;;;;;;;;;;;;;;2087883;28;7092;-62
2020/12/01 03:39:07;;;;;;;;;;;;;;;;;;2088203;28;7021;-62
2020/12/01 03:40:09;;;;;;;;;;;;;;;;;;2088588;28;8126;-60
2020/12/01 03:41:11;;;;;;;;;;;;;;;;;;2088393;28;7061;-61
2020/12/01 03:42:13;;;;;;;;;;;;;;;;;;2088001;28;7054;-60
2020/12/01 03:43:16;;;;;;;;;;;;;;;;;;2087660;28;7151;-58
2020/12/01 03:44:18;;;;;;;;;;;;;;;;;;2087398;28;7005;-61
2020/12/01 03:45:26;;;;;;;;;;;;;;;;;;2071411;28;7434;-58
2020/12/01 03:46:31;;;;;;;;;;;;;;;;;;2071241;28;7009;-62
2020/12/01 03:47:33;;;;;;;;;;;;;;;;;;2071200;28;7092;-60
2020/12/01 03:48:35;;;;;;;;;;;;;;;;;;2071450;28;8028;-58
2020/12/01 03:49:37;;;;;;;;;;;;;;;;;;2071357;28;7006;-61
2020/12/01 03:50:40;;;;;;;;;;;;;;;;;;2071611;28;7021;-59
2020/12/01 03:51:42;;;;;;;;;;;;;;;;;;2071620;28;7112;-61
2020/12/01 03:52:44;;;;;;;;;;;;;;;;;;2071809;28;7117;-59
2020/12/01 03:53:52;;;;;;;;;;;;;;;;;;2071649;28;7042;-60
2020/12/01 03:54:54;;;;;;;;;;;;;;;;;;2071504;28;7053;-61
2020/12/01 03:55:56;;;;;;;;;;;;;;;;;;2071321;28;7096;-61
2020/12/01 03:56:58;;;;;;;;;;;;;;;;;;2071502;28;7131;-60
2020/12/01 03:58:00;;;;;;;;;;;;;;;;;;2071733;28;7096;-59
2020/12/01 03:59:03;;;;;;;;;;;;;;;;;;2071853;28;7026;-60
2020/12/01 04:00:05;;;;;;;;;;;;;;;;;;2071507;28;7018;-62
2020/12/01 04:01:07;;;;;;;;;;;;;;;;;;2070895;28;7010;-58
2020/12/01 04:02:09;;;;;;;;;;;;;;;;;;2071036;28;7042;-61
2020/12/01 04:03:11;;;;;;;;;;;;;;;;;;2071048;28;7009;-59
2020/12/01 04:04:13;;;;;;;;;;;;;;;;;;2070373;28;7363;-62
2020/12/01 04:05:16;;;;;;;;;;;;;;;;;;2070696;28;7088;-61
2020/12/01 04:06:18;;;;;;;;;;;;;;;;;;2071242;28;7006;-58
2020/12/01 04:07:23;;;;;;;;;;;;;;;;;;2071363;28;7013;-60
2020/12/01 04:08:25;;;;;;;;;;;;;;;;;;2071052;28;7136;-59
2020/12/01 04:09:27;;;;;;;;;;;;;;;;;;2071436;28;7009;-60
2020/12/01 04:10:29;;;;;;;;;;;;;;;;;;2071195;28;7304;-61
2020/12/01 04:11:31;;;;;;;;;;;;;;;;;;2070824;28;7113;-60
2020/12/01 04:12:34;;;;;;;;;;;;;;;;;;2071352;28;7042;-61
2020/12/01 04:15:36;;;;;;;;;;;;;;;;;;2071444;28;7069;-61
2020/12/01 04:16:38;;;;;;;;;;;;;;;;;;2070277;28;7009;-59
2020/12/01 04:17:39;;;;;;;;;;;;;;;;;;2071157;28;7092;-59
2020/12/01 04:18:42;;;;;;;;;;;;;;;;;;2070906;28;7010;-59
2020/12/01 04:19:44;;;;;;;;;;;;;;;;;;2071227;28;7119;-57
2020/12/01 04:20:46;;;;;;;;;;;;;;;;;;2071159;28;8885;-58
2020/12/01 04:21:48;;;;;;;;;;;;;;;;;;2071356;28;7029;-60
2020/12/01 04:22:50;;;;;;;;;;;;;;;;;;2071578;28;7009;-59
2020/12/01 04:23:52;;;;;;;;;;;;;;;;;;2070378;28;8095;-60
2020/12/01 04:24:54;;;;;;;;;;;;;;;;;;2069719;28;7112;-62
2020/12/01 04:25:56;;;;;;;;;;;;;;;;;;2070347;28;7010;-59
2020/12/01 04:28:46;;;;;;;;;;;;;;;;;;2070360;28;8047;-61
2020/12/01 04:29:48;;;;;;;;;;;;;;;;;;2071368;28;7033;-61
2020/12/01 04:30:50;;;;;;;;;;;;;;;;;;2070851;28;7037;-57
2020/12/01 04:31:52;;;;;;;;;;;;;;;;;;2070820;28;7042;-58
2020/12/01 04:32:54;;;;;;;;;;;;;;;;;;2071249;28;7042;-59
2020/12/01 04:33:56;;;;;;;;;;;;;;;;;;2070972;28;7112;-61
2020/12/01 04:34:58;;;;;;;;;;;;;;;;;;2071382;28;7049;-59
2020/12/01 04:36:00;;;;;;;;;;;;;;;;;;2070806;28;7042;-59
2020/12/01 04:37:04;;;;;;;;;;;;;;;;;;2069688;28;7041;-61
2020/12/01 04:38:07;;;;;;;;;;;;;;;;;;2071122;28;7009;-58
2020/12/01 04:39:09;;;;;;;;;;;;;;;;;;2071111;28;7033;-60
2020/12/01 04:40:15;;;;;;;;;;;;;;;;;;2070737;28;7009;-60
2020/12/01 04:41:17;;;;;;;;;;;;;;;;;;2070699;28;7009;-61
2020/12/01 04:42:19;;;;;;;;;;;;;;;;;;2070988;28;7102;-61
2020/12/01 04:43:27;;;;;;;;;;;;;;;;;;2071340;28;7096;-61
2020/12/01 04:44:40;;;;;;;;;;;;;;;;;;2073520;28;7096;-60
2020/12/01 04:45:46;;;;;;;;;;;;;;;;;;2086933;28;7042;-58
2020/12/01 04:46:50;;;;;;;;;;;;;;;;;;2087285;28;7096;-61
2020/12/01 04:47:57;;;;;;;;;;;;;;;;;;2087209;28;8114;-61
2020/12/01 04:49:07;;;;;;;;;;;;;;;;;;2087151;28;7009;-56
2020/12/01 04:50:13;;;;;;;;;;;;;;;;;;2086608;28;7200;-60
2020/12/01 04:51:38;;;;;;;;;;;;;;;;;;2087419;28;7025;-59
2020/12/01 04:52:59;;;;;;;;;;;;;;;;;;2084018;28;7046;-61
2020/12/01 04:54:01;;;;;;;;;;;;;;;;;;2085935;28;7338;-57
2020/12/01 04:55:35;;;;;;;;;;;;;;;;;;2087169;28;7108;-60
2020/12/01 04:56:37;;;;;;;;;;;;;;;;;;2087213;28;7033;-62
2020/12/01 04:57:39;;;;;;;;;;;;;;;;;;2087230;28;7046;-60
2020/12/01 04:59:00;;;;;;;;;;;;;;;;;;2087092;28;7013;-62
2020/12/01 05:00:15;;;;;;;;;;;;;;;;;;2087051;28;7116;-61
2020/12/01 05:01:38;;;;;;;;;;;;;;;;;;2084149;28;7252;-59
2020/12/01 05:02:56;;;;;;;;;;;;;;;;;;2085757;28;7199;-57
2020/12/01 05:04:18;;;;;;;;;;;;;;;;;;2086112;28;7084;-61
2020/12/01 05:07:46;;;;;;;;;;;;;;;;;;2077402;28;7268;-61
2020/12/01 05:09:04;;;;;;;;;;;;;;;;;;2076777;28;7167;-59
2020/12/01 05:10:10;;;;;;;;;;;;;;;;;;2086448;28;7109;-62
2020/12/01 05:11:18;;;;;;;;;;;;;;;;;;2087329;28;7101;-62
2020/12/01 05:12:28;;;;;;;;;;;;;;;;;;2086884;28;7112;-60
2020/12/01 05:13:33;;;;;;;;;;;;;;;;;;2086413;28;7013;-58
2020/12/01 05:14:42;;;;;;;;;;;;;;;;;;2087006;28;7009;-61
2020/12/01 05:15:50;;;;;;;;;;;;;;;;;;2087014;28;7013;-59
2020/12/01 05:17:15;;;;;;;;;;;;;;;;;;2086944;28;7314;-61
2020/12/01 05:18:43;;;;;;;;;;;;;;;;;;2061762;28;7029;-60
2020/12/01 05:19:46;;;;;;;;;;;;;;;;;;2084926;28;8043;-57
2020/12/01 05:20:50;;;;;;;;;;;;;;;;;;2087065;28;7088;-60
2020/12/01 05:21:52;;;;;;;;;;;;;;;;;;2086815;28;7038;-59
2020/12/01 05:22:57;;;;;;;;;;;;;;;;;;2087386;28;7403;-61
2020/12/01 05:23:59;;;;;;;;;;;;;;;;;;2087411;28;7042;-60
2020/12/01 05:25:02;;;;;;;;;;;;;;;;;;2086969;28;8562;-61
2020/12/01 05:26:06;;;;;;;;;;;;;;;;;;2086981;28;7050;-59
2020/12/01 05:27:21;;;;;;;;;;;;;;;;;;2086828;28;7010;-58
2020/12/01 05:28:23;;;;;;;;;;;;;;;;;;2087368;28;7058;-63
2020/12/01 05:29:25;;;;;;;;;;;;;;;;;;2086852;28;7009;-61
2020/12/01 05:30:27;;;;;;;;;;;;;;;;;;2087067;28;7091;-61
2020/12/01 05:31:41;;;;;;;;;;;;;;;;;;2086954;28;7041;-58
2020/12/01 05:33:03;;;;;;;;;;;;;;;;;;2086964;28;7013;-61
2020/12/01 05:34:07;;;;;;;;;;;;;;;;;;2087371;28;7104;-62
2020/12/01 05:35:11;;;;;;;;;;;;;;;;;;2087448;28;7009;-61
2020/12/01 05:36:20;;;;;;;;;;;;;;;;;;2086983;28;7009;-60
2020/12/01 05:37:22;;;;;;;;;;;;;;;;;;2087607;28;7280;-60
2020/12/01 05:38:24;;;;;;;;;;;;;;;;;;2086879;28;7092;-61
2020/12/01 05:39:26;;;;;;;;;;;;;;;;;;2086942;28;7994;-61
2020/12/01 05:40:30;;;;;;;;;;;;;;;;;;2086461;28;7132;-59
2020/12/01 05:41:37;;;;;;;;;;;;;;;;;;2085947;28;7378;-60
2020/12/01 05:42:42;;;;;;;;;;;;;;;;;;2086012;28;7129;-59
2020/12/01 05:43:44;;;;;;;;;;;;;;;;;;2085840;28;7135;-62
2020/12/01 05:44:57;;;;;;;;;;;;;;;;;;2085545;28;7061;-58
2020/12/01 05:46:16;;;;;;;;;;;;;;;;;;2086044;28;7143;-61
2020/12/01 05:47:20;;;;;;;;;;;;;;;;;;2084713;28;7123;-58
2020/12/01 05:48:40;;;;;;;;;;;;;;;;;;2086406;28;8035;-60
2020/12/01 05:49:45;;;;;;;;;;;;;;;;;;2086266;28;7140;-61
2020/12/01 05:50:53;;;;;;;;;;;;;;;;;;2086412;28;7009;-60
2020/12/01 05:52:03;;;;;;;;;;;;;;;;;;2085784;28;8088;-60
2020/12/01 05:53:12;;;;;;;;;;;;;;;;;;2086188;28;7137;-62
2020/12/01 05:54:22;;;;;;;;;;;;;;;;;;2085434;28;7009;-60
2020/12/01 05:55:26;;;;;;;;;;;;;;;;;;2086799;28;7053;-59
2020/12/01 05:56:28;;;;;;;;;;;;;;;;;;2086801;28;7045;-60
2020/12/01 05:57:30;;;;;;;;;;;;;;;;;;2087358;28;7251;-63
2020/12/01 05:58:36;;;;;;;;;;;;;;;;;;2094774;28;7029;-59
2020/12/01 05:59:50;;;;;;;;;;;;;;;;;;2093874;28;7037;-61
2020/12/01 06:00:58;;;;;;;;;;;;;;;;;;2087387;28;7116;-59
2020/12/01 06:02:05;;;;;;;;;;;;;;;;;;2088954;28;7144;-63
2020/12/01 06:03:16;;;;;;;;;;;;;;;;;;2088491;28;7041;-62
2020/12/01 06:04:22;;;;;;;;;;;;;;;;;;2088762;28;7088;-60
2020/12/01 06:05:25;;;;;;;;;;;;;;;;;;2088676;28;7088;-61
2020/12/01 06:06:36;;;;;;;;;;;;;;;;;;2089151;28;7021;-61
2020/12/01 06:07:42;;;;;;;;;;;;;;;;;;2088296;28;7113;-59
2020/12/01 06:08:47;;;;;;;;;;;;;;;;;;2088615;28;7016;-60
2020/12/01 06:10:08;;;;;;;;;;;;;;;;;;2087458;28;7100;-59
2020/12/01 06:11:10;;;;;;;;;;;;;;;;;;2087753;28;7084;-57
2020/12/01 06:12:32;;;;;;;;;;;;;;;;;;2088267;28;7150;-60
2020/12/01 06:13:56;;;;;;;;;;;;;;;;;;2088865;28;7096;-59
2020/12/01 06:15:00;;;;;;;;;;;;;;;;;;2089127;28;8027;-59
2020/12/01 06:16:17;;;;;;;;;;;;;;;;;;2088679;28;7009;-60
2020/12/01 06:17:22;;;;;;;;;;;;;;;;;;2088336;28;7045;-58
2020/12/01 06:18:30;;;;;;;;;;;;;;;;;;2088390;28;7029;-60
2020/12/01 06:19:55;;;;;;;;;;;;;;;;;;2088711;28;7013;-61
2020/12/01 06:21:06;;;;;;;;;;;;;;;;;;2063449;28;7046;-58
2020/12/01 06:22:32;;;;;;;;;;;;;;;;;;2088535;28;7121;-59
2020/12/01 06:23:52;;;;;;;;;;;;;;;;;;2088441;28;7025;-60
2020/12/01 06:25:14;;;;;;;;;;;;;;;;;;2088336;28;7096;-60
2020/12/01 06:26:35;;;;;;;;;;;;;;;;;;2088463;28;7013;-60
2020/12/01 06:28:07;;;;;;;;;;;;;;;;;;2088760;28;8022;-61
2020/12/01 06:29:09;;;;;;;;;;;;;;;;;;2088777;28;7025;-61
2020/12/01 06:30:29;;;;;;;;;;;;;;;;;;2088614;28;7009;-59
2020/12/01 06:31:43;;;;;;;;;;;;;;;;;;2096237;28;7049;-59
2020/12/01 06:32:57;;;;;;;;;;;;;;;;;;2094261;28;7021;-59
2020/12/01 06:33:59;;;;;;;;;;;;;;;;;;2088385;28;7049;-61
2020/12/01 06:35:04;;;;;;;;;;;;;;;;;;2088460;28;7116;-60
2020/12/01 06:36:12;;;;;;;;;;;;;;;;;;2088163;28;7029;-57
2020/12/01 06:37:19;;;;;;;;;;;;;;;;;;2087664;28;7050;-62
2020/12/01 06:38:21;;;;;;;;;;;;;;;;;;2088199;28;7013;-60
2020/12/01 06:39:42;;;;;;;;;;;;;;;;;;2088341;28;7096;-60
2020/12/01 06:40:51;;;;;;;;;;;;;;;;;;2087603;28;7014;-59
2020/12/01 06:42:16;;;;;;;;;;;;;;;;;;2088002;28;7049;-61
2020/12/01 06:43:26;;;;;;;;;;;;;;;;;;2063446;28;7396;-59
2020/12/01 06:44:29;;;;;;;;;;;;;;;;;;2088063;28;7141;-59
2020/12/01 06:45:36;;;;;;;;;;;;;;;;;;2088571;28;7108;-60
2020/12/01 06:46:43;;;;;;;;;;;;;;;;;;2087624;28;7139;-57
2020/12/01 06:47:47;;;;;;;;;;;;;;;;;;2088502;28;8055;-59
2020/12/01 06:48:50;;;;;;;;;;;;;;;;;;2087874;28;7100;-62
2020/12/01 06:49:55;;;;;;;;;;;;;;;;;;2088381;28;7037;-58
2020/12/01 06:51:01;;;;;;;;;;;;;;;;;;2087932;28;7133;-59
2020/12/01 06:52:11;;;;;;;;;;;;;;;;;;2088250;28;7096;-56
2020/12/01 06:53:23;;;;;;;;;;;;;;;;;;2088572;28;7116;-60
2020/12/01 06:54:25;;;;;;;;;;;;;;;;;;2088794;28;8145;-61
2020/12/01 06:55:47;;;;;;;;;;;;;;;;;;2088342;28;7379;-61
2020/12/01 06:57:12;;;;;;;;;;;;;;;;;;2088359;28;7105;-62
2020/12/01 06:58:18;;;;;;;;;;;;;;;;;;2088755;28;8106;-61
2020/12/01 06:59:20;;;;;;;;;;;;;;;;;;2088115;28;7013;-61
2020/12/01 07:00:26;;;;;;;;;;;;;;;;;;2088174;28;7144;-61
2020/12/01 07:01:30;;;;;;;;;;;;;;;;;;2087971;28;7041;-61
2020/12/01 07:02:35;;;;;;;;;;;;;;;;;;2088261;28;8110;-60
2020/12/01 07:03:38;;;;;;;;;;;;;;;;;;2088032;28;7139;-60
2020/12/01 07:04:47;;;;;;;;;;;;;;;;;;2088229;28;7053;-59
2020/12/01 07:05:49;;;;;;;;;;;;;;;;;;2088505;28;7025;-59
2020/12/01 07:06:57;;;;;;;;;;;;;;;;;;2088218;28;7009;-63
2020/12/01 07:08:11;;;;;;;;;;;;;;;;;;2087821;28;7009;-58
2020/12/01 07:09:16;;;;;;;;;;;;;;;;;;2088156;28;7009;-60
2020/12/01 07:10:22;;;;;;;;;;;;;;;;;;2088063;28;7437;-59
2020/12/01 07:11:32;;;;;;;;;;;;;;;;;;2088036;28;7005;-58
2020/12/01 07:12:34;;;;;;;;;;;;;;;;;;2087668;28;7308;-58
2020/12/01 07:13:49;;;;;;;;;;;;;;;;;;2087983;28;7108;-61
2020/12/01 07:15:01;;;;;;;;;;;;;;;;;;2087980;28;7088;-58
2020/12/01 07:16:08;;;;;;;;;;;;;;;;;;2088173;28;7088;-63
2020/12/01 07:17:22;;;;;;;;;;;;;;;;;;2087865;28;7048;-59
2020/12/01 07:18:29;;;;;;;;;;;;;;;;;;2087731;28;7147;-60
2020/12/01 07:19:36;;;;;;;;;;;;;;;;;;2088387;28;7023;-60
2020/12/01 07:20:42;;;;;;;;;;;;;;;;;;2087980;28;7017;-59
2020/12/01 07:21:46;;;;;;;;;;;;;;;;;;2088004;28;7088;-59
2020/12/01 07:23:13;;;;;;;;;;;;;;;;;;2087988;28;7457;-60
2020/12/01 07:24:17;;;;;;;;;;;;;;;;;;2085534;28;7036;-59
2020/12/01 07:25:35;;;;;;;;;;;;;;;;;;2087374;28;7013;-60
2020/12/01 07:26:39;;;;;;;;;;;;;;;;;;2086125;28;8094;-58
2020/12/01 07:27:47;;;;;;;;;;;;;;;;;;2087826;28;7013;-62
2020/12/01 07:28:49;;;;;;;;;;;;;;;;;;2086232;28;7324;-61
2020/12/01 07:29:54;;;;;;;;;;;;;;;;;;2087910;28;7010;-60
2020/12/01 07:30:58;;;;;;;;;;;;;;;;;;2088071;28;7041;-61
2020/12/01 07:32:14;;;;;;;;;;;;;;;;;;2088033;28;7088;-59
2020/12/01 07:33:20;;;;;;;;;;;;;;;;;;2087666;28;7044;-58
2020/12/01 07:34:25;;;;;;;;;;;;;;;;;;2087850;28;8038;-60
2020/12/01 07:35:45;;;;;;;;;;;;;;;;;;2087396;28;7105;-61
2020/12/01 07:37:10;;;;;;;;;;;;;;;;;;2087851;28;7464;-60
2020/12/01 07:38:21;;;;;;;;;;;;;;;;;;2087654;28;7151;-60
2020/12/01 07:39:35;;;;;;;;;;;;;;;;;;2087254;28;7109;-60
2020/12/01 07:40:52;;;;;;;;;;;;;;;;;;2087698;28;7013;-59
2020/12/01 07:41:56;;;;;;;;;;;;;;;;;;2087749;28;7021;-61
2020/12/01 07:43:00;;;;;;;;;;;;;;;;;;2086628;28;7045;-60